Time;durP1;ratioP1;P1;durP2;ratioP2;P2;SDS_P1;SDS_P2;PMS_P1;PMS_P2;Temp;Humidity;BMP_temperature;BMP_pressure;BME280_temperature;BME280_humidity;BME280_pressure;Samples;Min_cycle;Max_cycle;Signal;HPM_P1;HPM_P2
2023/12/14 00:00:19;;;;;;;10.13;7.30;;;6.10;91.00;;;;;;5091870;27;20644;-80
2023/12/14 00:02:44;;;;;;;10.98;7.28;;;6.10;91.10;;;;;;5124726;27;20044;-79
2023/12/14 00:05:10;;;;;;;8.38;7.47;;;6.10;91.00;;;;;;5106401;27;20042;-79
2023/12/14 00:07:36;;;;;;;9.40;7.28;;;6.10;91.00;;;;;;5126469;27;20126;-79
2023/12/14 00:10:03;;;;;;;10.65;7.40;;;6.10;91.00;;;;;;5131302;27;20515;-79
2023/12/14 00:12:29;;;;;;;11.05;8.27;;;6.10;91.00;;;;;;5112517;27;20035;-79
2023/12/14 00:14:54;;;;;;;7.80;7.00;;;6.10;91.00;;;;;;5109199;27;20103;-79
2023/12/14 00:17:20;;;;;;;8.48;6.68;;;6.10;91.00;;;;;;5090064;27;20035;-79
2023/12/14 00:19:45;;;;;;;9.10;7.03;;;6.10;90.90;;;;;;5104235;28;20431;-79
2023/12/14 00:22:11;;;;;;;8.60;6.90;;;6.10;90.90;;;;;;5109023;28;20510;-79
2023/12/14 00:24:36;;;;;;;10.77;7.43;;;6.10;90.90;;;;;;5109402;28;20035;-79
2023/12/14 00:27:02;;;;;;;9.18;7.18;;;6.10;90.90;;;;;;5125742;28;20478;-78
2023/12/14 00:29:28;;;;;;;10.88;7.68;;;6.10;90.90;;;;;;5109211;28;20051;-78
2023/12/14 00:31:53;;;;;;;8.15;7.13;;;6.10;90.90;;;;;;5109118;28;20378;-79
2023/12/14 00:34:19;;;;;;;8.95;6.97;;;6.10;90.90;;;;;;5124514;28;20040;-79
2023/12/14 00:36:45;;;;;;;9.55;7.68;;;6.10;90.90;;;;;;5112208;28;20091;-79
2023/12/14 00:39:10;;;;;;;12.65;8.05;;;6.10;90.90;;;;;;5092663;28;20428;-79
2023/12/14 00:41:36;;;;;;;10.55;7.90;;;6.20;90.90;;;;;;5130201;28;20032;-79
2023/12/14 00:44:01;;;;;;;10.27;7.38;;;6.10;90.90;;;;;;5126217;28;20043;-79
2023/12/14 00:46:27;;;;;;;10.25;8.02;;;6.10;90.90;;;;;;5124148;28;20042;-79
2023/12/14 00:48:53;;;;;;;10.23;7.53;;;6.20;90.80;;;;;;5106315;28;20039;-79
2023/12/14 00:51:18;;;;;;;8.93;6.45;;;6.20;90.80;;;;;;5109510;28;20079;-79
2023/12/14 00:53:44;;;;;;;8.68;6.40;;;6.20;90.80;;;;;;5105241;28;20058;-79
2023/12/14 00:56:09;;;;;;;9.85;6.68;;;6.10;90.80;;;;;;5130353;28;20393;-80
2023/12/14 00:58:35;;;;;;;10.57;7.47;;;6.10;90.70;;;;;;5108881;28;20500;-79
2023/12/14 01:01:00;;;;;;;12.95;7.20;;;6.10;90.70;;;;;;5111633;28;20035;-79
2023/12/14 01:03:26;;;;;;;9.27;6.80;;;6.10;90.70;;;;;;5123945;28;20039;-79
2023/12/14 01:05:51;;;;;;;12.05;7.65;;;6.10;90.60;;;;;;5108749;28;20351;-79
2023/12/14 01:08:17;;;;;;;8.57;6.68;;;6.10;90.60;;;;;;5105764;28;20040;-79
2023/12/14 01:10:43;;;;;;;11.82;8.10;;;6.10;90.70;;;;;;5124785;28;20545;-79
2023/12/14 01:13:09;;;;;;;11.90;7.30;;;6.10;90.70;;;;;;5107730;28;20035;-79
2023/12/14 01:15:34;;;;;;;10.25;7.20;;;6.10;90.60;;;;;;5106355;28;20043;-79
2023/12/14 01:18:00;;;;;;;11.13;7.53;;;6.00;90.60;;;;;;5128033;28;20065;-79
2023/12/14 01:20:26;;;;;;;9.75;7.63;;;6.00;90.50;;;;;;5125473;28;20023;-79
2023/12/14 01:22:51;;;;;;;12.27;7.65;;;6.10;90.60;;;;;;5128288;27;20058;-79
2023/12/14 01:25:17;;;;;;;9.60;6.32;;;6.00;90.50;;;;;;5112528;27;20061;-79
2023/12/14 01:27:42;;;;;;;12.73;6.95;;;6.00;90.50;;;;;;5129397;27;20032;-79
2023/12/14 01:30:08;;;;;;;10.90;7.35;;;6.00;90.60;;;;;;5091961;27;20082;-79
2023/12/14 01:32:34;;;;;;;11.63;7.65;;;6.00;90.50;;;;;;5130240;27;20042;-79
2023/12/14 01:34:59;;;;;;;10.43;7.47;;;6.00;90.60;;;;;;5129227;27;20062;-79
2023/12/14 01:37:25;;;;;;;11.27;6.85;;;6.00;90.60;;;;;;5110702;27;20653;-79
2023/12/14 01:39:50;;;;;;;11.95;6.97;;;6.00;90.80;;;;;;5108246;28;20032;-79
2023/12/14 01:42:16;;;;;;;13.18;7.93;;;6.00;90.60;;;;;;5109890;27;20046;-79
2023/12/14 01:44:41;;;;;;;9.77;6.57;;;6.00;90.60;;;;;;5113013;27;20039;-79
2023/12/14 01:47:07;;;;;;;11.27;7.07;;;6.00;90.60;;;;;;5112180;27;20126;-79
2023/12/14 01:49:32;;;;;;;10.15;6.05;;;6.00;90.60;;;;;;5129060;27;20051;-79
2023/12/14 01:51:58;;;;;;;11.68;7.50;;;6.00;90.60;;;;;;5108615;27;20036;-79
2023/12/14 01:54:24;;;;;;;13.68;6.55;;;6.00;90.50;;;;;;5114977;27;20482;-79
2023/12/14 01:56:49;;;;;;;9.93;7.15;;;5.90;90.50;;;;;;5109925;27;20136;-79
2023/12/14 01:59:15;;;;;;;10.43;6.97;;;5.90;90.50;;;;;;5108534;27;20051;-79
2023/12/14 02:01:52;;;;;;;9.93;6.50;;;5.90;90.50;;;;;;5113295;27;20042;-79
2023/12/14 02:04:18;;;;;;;8.82;6.75;;;5.90;90.50;;;;;;5127148;27;20047;-79
2023/12/14 02:06:43;;;;;;;8.93;6.75;;;5.90;90.50;;;;;;5127575;27;20036;-79
2023/12/14 02:09:09;;;;;;;9.95;6.50;;;5.90;90.50;;;;;;5126517;27;20044;-79
2023/12/14 02:11:35;;;;;;;10.63;6.82;;;6.00;90.50;;;;;;5131080;27;20161;-79
2023/12/14 02:14:06;;;;;;;8.88;5.95;;;6.00;90.50;;;;;;5124165;27;20477;-80
2023/12/14 02:16:32;;;;;;;7.32;5.60;;;6.00;90.60;;;;;;5112174;27;20493;-79
2023/12/14 02:18:57;;;;;;;6.25;4.70;;;6.00;90.50;;;;;;5126897;27;20047;-79
2023/12/14 02:21:23;;;;;;;7.65;5.20;;;6.00;90.40;;;;;;5112516;27;20503;-79
2023/12/14 02:23:48;;;;;;;11.50;6.32;;;6.00;90.40;;;;;;5112103;27;20054;-79
2023/12/14 02:26:14;;;;;;;9.13;5.93;;;6.00;90.30;;;;;;5108091;27;20047;-79
2023/12/14 02:28:41;;;;;;;8.13;5.65;;;5.90;90.10;;;;;;5110259;27;20071;-79
2023/12/14 02:31:06;;;;;;;8.15;5.00;;;5.90;90.00;;;;;;5110222;27;20042;-79
2023/12/14 02:33:32;;;;;;;7.63;6.10;;;5.90;89.90;;;;;;5108555;27;20035;-79
2023/12/14 02:35:57;;;;;;;6.88;5.68;;;5.90;89.70;;;;;;5126300;27;20036;-79
2023/12/14 02:38:23;;;;;;;7.95;5.30;;;5.90;89.40;;;;;;5112265;28;20040;-79
2023/12/14 02:40:52;;;;;;;7.78;4.75;;;5.90;89.40;;;;;;5107587;28;20117;-79
2023/12/14 02:43:18;;;;;;;6.85;4.50;;;5.90;89.30;;;;;;5106667;28;20032;-79
2023/12/14 02:45:44;;;;;;;6.88;4.72;;;5.80;89.00;;;;;;5110280;28;20045;-79
2023/12/14 02:48:10;;;;;;;6.40;5.00;;;5.80;89.20;;;;;;5107901;28;20031;-79
2023/12/14 02:50:36;;;;;;;8.95;5.05;;;5.80;88.70;;;;;;5104788;28;20044;-80
2023/12/14 02:53:01;;;;;;;7.82;5.78;;;5.80;88.40;;;;;;5108563;28;20461;-79
2023/12/14 02:55:27;;;;;;;6.05;5.00;;;5.70;88.40;;;;;;5105169;28;20028;-79
2023/12/14 02:57:52;;;;;;;6.45;4.90;;;5.80;88.40;;;;;;5110631;28;20039;-79
2023/12/14 03:00:18;;;;;;;7.10;5.15;;;5.70;88.30;;;;;;5107365;28;20043;-79
2023/12/14 03:02:44;;;;;;;7.18;5.78;;;5.70;88.30;;;;;;5106022;28;21434;-80
2023/12/14 03:05:09;;;;;;;6.90;5.15;;;5.70;88.30;;;;;;5088672;28;20036;-79
2023/12/14 03:07:35;;;;;;;7.35;5.20;;;5.70;88.30;;;;;;5109255;28;20118;-79
2023/12/14 03:10:02;;;;;;;6.55;4.93;;;5.70;88.30;;;;;;5106988;28;20104;-79
2023/12/14 03:12:27;;;;;;;7.03;5.28;;;5.70;88.30;;;;;;5109796;28;20093;-79
2023/12/14 03:14:53;;;;;;;7.00;5.28;;;5.70;88.40;;;;;;5108610;28;20402;-79
2023/12/14 03:17:18;;;;;;;7.97;5.10;;;5.70;88.70;;;;;;5112892;28;20114;-80
2023/12/14 03:19:44;;;;;;;7.18;5.43;;;5.70;88.60;;;;;;5110527;28;20048;-80
2023/12/14 03:22:09;;;;;;;7.07;5.50;;;5.70;88.60;;;;;;5108281;28;20043;-80
2023/12/14 03:24:36;;;;;;;7.03;5.13;;;5.70;88.80;;;;;;5107290;28;20046;-79
2023/12/14 03:27:02;;;;;;;9.50;5.95;;;5.70;89.00;;;;;;5108272;28;20031;-79
2023/12/14 03:29:28;;;;;;;6.43;4.72;;;5.80;89.50;;;;;;5107502;28;20050;-80
2023/12/14 03:31:58;;;;;;;8.20;5.20;;;5.80;89.20;;;;;;5112756;28;20103;-79
2023/12/14 03:34:24;;;;;;;8.32;4.80;;;5.80;89.30;;;;;;5110057;28;20040;-79
2023/12/14 03:36:50;;;;;;;7.43;5.03;;;5.80;89.20;;;;;;5115056;27;20134;-80
2023/12/14 03:39:18;;;;;;;7.28;5.63;;;5.80;89.20;;;;;;5124646;27;20487;-80
2023/12/14 03:41:44;;;;;;;7.50;5.25;;;5.90;89.20;;;;;;5125797;27;20088;-80
2023/12/14 03:44:10;;;;;;;10.18;5.85;;;5.80;89.10;;;;;;5125728;27;20576;-80
2023/12/14 03:46:35;;;;;;;9.05;6.30;;;5.90;89.20;;;;;;5127242;27;20070;-80
2023/12/14 03:49:02;;;;;;;9.65;5.75;;;5.80;89.10;;;;;;5128600;27;20118;-80
2023/12/14 03:51:27;;;;;;;9.85;6.45;;;5.80;89.20;;;;;;5109970;27;20047;-80
2023/12/14 03:53:53;;;;;;;11.57;6.75;;;5.90;89.30;;;;;;5126986;27;20079;-80
2023/12/14 03:56:19;;;;;;;10.10;6.35;;;5.90;89.40;;;;;;5109203;27;20095;-80
2023/12/14 03:58:44;;;;;;;10.98;6.70;;;5.90;89.40;;;;;;5107690;28;20402;-80
2023/12/14 04:01:20;;;;;;;11.35;6.72;;;5.90;89.30;;;;;;5126963;27;20388;-80
2023/12/14 04:03:46;;;;;;;12.18;6.88;;;5.90;89.30;;;;;;5126862;27;20422;-79
2023/12/14 04:06:13;;;;;;;12.38;6.53;;;5.90;89.30;;;;;;5128544;27;20261;-79
2023/12/14 04:08:39;;;;;;;11.52;6.78;;;5.90;89.40;;;;;;5108710;27;20499;-79
2023/12/14 04:11:05;;;;;;;12.25;7.57;;;5.90;89.50;;;;;;5103850;28;20043;-79
2023/12/14 04:13:31;;;;;;;11.30;7.78;;;5.90;89.50;;;;;;5125765;27;20569;-79
2023/12/14 04:15:57;;;;;;;13.23;7.55;;;5.90;90.00;;;;;;5122620;27;20035;-79
2023/12/14 04:18:23;;;;;;;14.65;8.00;;;5.90;89.50;;;;;;5107440;27;20049;-79
2023/12/14 04:20:49;;;;;;;11.63;7.05;;;5.90;89.60;;;;;;5106592;28;20039;-79
2023/12/14 04:23:14;;;;;;;15.52;7.95;;;5.90;89.60;;;;;;5106739;28;20044;-79
2023/12/14 04:25:40;;;;;;;13.90;7.95;;;5.90;89.70;;;;;;5107730;28;20039;-79
2023/12/14 04:28:05;;;;;;;12.13;7.57;;;5.90;89.80;;;;;;5111731;28;20525;-79
2023/12/14 04:30:31;;;;;;;12.50;7.95;;;5.90;89.90;;;;;;5104850;28;20039;-79
2023/12/14 04:32:56;;;;;;;13.55;8.90;;;5.90;89.70;;;;;;5129370;28;20490;-79
2023/12/14 04:35:22;;;;;;;16.10;9.20;;;5.90;89.70;;;;;;5125760;28;20125;-79
2023/12/14 04:37:48;;;;;;;14.77;7.72;;;5.90;89.60;;;;;;5126594;28;20058;-79
2023/12/14 04:40:14;;;;;;;12.60;8.35;;;5.90;89.50;;;;;;5125917;28;20035;-79
2023/12/14 04:42:39;;;;;;;12.85;7.28;;;5.80;89.30;;;;;;5128087;28;20032;-79
2023/12/14 04:45:06;;;;;;;13.40;8.23;;;5.80;89.40;;;;;;5123328;28;20031;-79
2023/12/14 04:47:31;;;;;;;12.38;7.50;;;5.80;89.40;;;;;;5109377;28;20027;-79
2023/12/14 04:49:57;;;;;;;12.38;7.47;;;5.80;89.40;;;;;;5107973;28;20035;-79
2023/12/14 04:52:22;;;;;;;15.02;7.68;;;5.80;89.50;;;;;;5108624;28;20047;-80
2023/12/14 04:54:48;;;;;;;15.05;8.05;;;5.80;89.50;;;;;;5108244;28;20401;-79
2023/12/14 04:57:14;;;;;;;14.32;8.30;;;5.80;89.60;;;;;;5097087;27;20050;-79
2023/12/14 04:59:42;;;;;;;13.85;7.07;;;5.80;89.70;;;;;;5126654;27;20040;-79
2023/12/14 05:02:07;;;;;;;13.23;7.90;;;5.80;89.70;;;;;;5095121;27;20067;-79
2023/12/14 05:04:33;;;;;;;13.45;7.55;;;5.80;89.80;;;;;;5111735;27;20490;-79
2023/12/14 05:06:58;;;;;;;15.23;7.53;;;5.80;89.70;;;;;;5114026;27;20394;-79
2023/12/14 05:09:24;;;;;;;14.00;8.00;;;5.80;89.90;;;;;;5113101;27;20080;-79
2023/12/14 05:11:50;;;;;;;12.70;7.10;;;5.90;89.90;;;;;;5131083;27;20039;-79
2023/12/14 05:14:15;;;;;;;14.35;7.15;;;5.90;89.90;;;;;;5107741;28;20043;-79
2023/12/14 05:16:41;;;;;;;17.40;7.97;;;5.80;89.80;;;;;;5114749;28;20035;-79
2023/12/14 05:19:06;;;;;;;12.48;6.90;;;5.90;89.80;;;;;;5113935;27;20043;-79
2023/12/14 05:21:32;;;;;;;13.27;7.50;;;5.90;89.60;;;;;;5107718;27;20042;-79
2023/12/14 05:23:57;;;;;;;10.35;6.18;;;5.90;89.60;;;;;;5111091;27;20040;-80
2023/12/14 05:26:23;;;;;;;9.10;6.45;;;5.80;89.50;;;;;;5115453;27;20035;-79
2023/12/14 05:28:49;;;;;;;8.60;6.00;;;5.80;89.50;;;;;;5115018;27;20035;-80
2023/12/14 05:31:14;;;;;;;11.48;6.88;;;5.90;89.60;;;;;;5131212;27;20077;-80
2023/12/14 05:33:40;;;;;;;11.30;6.95;;;5.90;89.50;;;;;;5133881;27;20030;-80
2023/12/14 05:36:10;;;;;;;12.82;7.53;;;5.90;89.50;;;;;;5136784;27;20043;-80
2023/12/14 05:38:37;;;;;;;10.43;6.57;;;5.90;89.50;;;;;;5132297;27;20031;-79
2023/12/14 05:41:03;;;;;;;14.20;7.53;;;5.90;89.50;;;;;;5112431;27;20040;-80
2023/12/14 05:43:29;;;;;;;9.95;6.53;;;5.90;89.60;;;;;;5135677;27;20031;-80
2023/12/14 05:45:54;;;;;;;9.65;6.85;;;5.90;89.40;;;;;;5131185;27;20460;-80
2023/12/14 05:48:20;;;;;;;10.90;7.28;;;5.90;89.50;;;;;;5126962;27;20035;-80
2023/12/14 05:50:46;;;;;;;12.93;7.57;;;5.90;89.60;;;;;;5110553;27;20066;-81
2023/12/14 05:53:11;;;;;;;11.57;7.80;;;5.90;89.60;;;;;;5129699;27;20106;-80
2023/12/14 05:55:39;;;;;;;15.68;7.32;;;5.90;89.50;;;;;;5128056;27;20039;-80
2023/12/14 05:58:05;;;;;;;14.02;7.32;;;5.90;89.40;;;;;;5110578;27;20039;-80
2023/12/14 06:00:31;;;;;;;13.90;7.40;;;5.90;89.40;;;;;;5110674;27;20043;-80
2023/12/14 06:02:57;;;;;;;9.75;6.72;;;5.90;89.40;;;;;;5125975;27;20028;-80
2023/12/14 06:05:22;;;;;;;18.45;8.00;;;5.90;89.40;;;;;;5109831;27;20092;-80
2023/12/14 06:07:48;;;;;;;13.27;7.15;;;5.90;89.50;;;;;;5128806;27;20063;-80
2023/12/14 06:10:14;;;;;;;12.73;6.85;;;5.90;89.50;;;;;;5112087;27;20043;-80
2023/12/14 06:12:39;;;;;;;13.82;7.78;;;5.90;89.60;;;;;;5127331;27;20031;-80
2023/12/14 06:15:06;;;;;;;15.10;8.80;;;5.90;89.70;;;;;;5133039;27;20031;-80
2023/12/14 06:17:33;;;;;;;10.63;7.18;;;5.90;89.70;;;;;;5125996;27;20036;-80
2023/12/14 06:19:59;;;;;;;10.82;7.20;;;5.90;89.80;;;;;;5110535;27;20051;-80
2023/12/14 06:22:26;;;;;;;10.52;6.35;;;5.90;89.80;;;;;;5126476;27;20035;-80
2023/12/14 06:24:51;;;;;;;11.70;7.35;;;6.00;89.90;;;;;;5130347;27;20039;-80
2023/12/14 06:27:17;;;;;;;10.20;6.70;;;6.00;90.00;;;;;;5126178;27;20024;-80
2023/12/14 06:29:43;;;;;;;11.63;6.82;;;6.00;90.00;;;;;;5110299;27;20047;-80
2023/12/14 06:32:09;;;;;;;12.85;8.02;;;6.00;90.10;;;;;;5111492;27;20047;-79
2023/12/14 06:34:34;;;;;;;10.48;6.70;;;6.00;90.10;;;;;;5111815;27;20039;-80
2023/12/14 06:37:01;;;;;;;11.63;6.43;;;6.00;90.10;;;;;;5129639;27;20043;-80
2023/12/14 06:39:27;;;;;;;13.48;7.43;;;6.10;90.10;;;;;;5127706;27;20435;-81
2023/12/14 06:41:53;;;;;;;9.68;6.80;;;6.10;90.10;;;;;;5132928;27;20080;-79
2023/12/14 06:44:19;;;;;;;9.80;6.10;;;6.10;90.10;;;;;;5130587;27;20027;-80
2023/12/14 06:46:44;;;;;;;11.90;6.75;;;6.10;90.10;;;;;;5130819;27;20047;-80
2023/12/14 06:49:10;;;;;;;13.07;7.57;;;6.10;90.10;;;;;;5112915;27;20070;-80
2023/12/14 06:51:36;;;;;;;13.55;8.38;;;6.10;90.10;;;;;;5134597;27;20447;-79
2023/12/14 06:54:01;;;;;;;11.05;6.45;;;6.10;90.10;;;;;;5131996;27;20039;-80
2023/12/14 06:56:27;;;;;;;9.65;6.45;;;6.20;90.00;;;;;;5132235;27;20122;-80
2023/12/14 06:58:53;;;;;;;11.50;7.30;;;6.20;90.00;;;;;;5131266;27;20073;-80
2023/12/14 07:01:19;;;;;;;10.32;6.28;;;6.20;90.00;;;;;;5130262;27;20023;-79
2023/12/14 07:03:45;;;;;;;10.40;6.20;;;6.20;89.90;;;;;;5124986;27;20075;-79
2023/12/14 07:06:15;;;;;;;10.63;7.18;;;6.20;90.00;;;;;;5108884;27;20088;-79
2023/12/14 07:08:41;;;;;;;12.05;6.75;;;6.20;90.00;;;;;;5102108;28;20042;-79
2023/12/14 07:11:11;;;;;;;8.23;5.80;;;6.20;90.10;;;;;;5134315;27;20035;-79
2023/12/14 07:13:37;;;;;;;12.52;7.03;;;6.20;90.10;;;;;;5106821;28;20040;-79
2023/12/14 07:16:07;;;;;;;9.70;6.93;;;6.20;90.20;;;;;;5110193;27;20035;-79
2023/12/14 07:18:35;;;;;;;13.02;6.80;;;6.20;90.20;;;;;;5107547;27;20031;-79
2023/12/14 07:21:01;;;;;;;12.10;7.55;;;6.30;90.30;;;;;;5109690;27;20039;-79
2023/12/14 07:23:27;;;;;;;11.15;6.40;;;6.30;90.30;;;;;;5107470;27;20053;-79
2023/12/14 07:25:53;;;;;;;11.75;6.68;;;6.30;90.30;;;;;;5090044;27;20482;-79
2023/12/14 07:28:18;;;;;;;13.40;8.20;;;6.30;90.30;;;;;;5104875;27;20035;-79
2023/12/14 07:30:46;;;;;;;9.23;6.95;;;6.30;90.40;;;;;;5104603;28;20047;-79
2023/12/14 07:33:12;;;;;;;8.73;6.40;;;6.40;90.40;;;;;;5108294;27;20051;-79
2023/12/14 07:35:37;;;;;;;10.40;7.53;;;6.40;90.40;;;;;;5106076;27;20051;-79
2023/12/14 07:38:03;;;;;;;12.15;6.80;;;6.40;90.40;;;;;;5127278;27;20051;-79
2023/12/14 07:40:29;;;;;;;11.90;7.65;;;6.40;90.50;;;;;;5127708;27;20107;-79
2023/12/14 07:42:55;;;;;;;12.65;8.45;;;6.40;90.40;;;;;;5122666;27;20028;-79
2023/12/14 07:45:21;;;;;;;11.40;7.50;;;6.40;90.40;;;;;;5128598;27;20107;-78
2023/12/14 07:47:46;;;;;;;12.02;7.63;;;6.50;90.50;;;;;;5107484;27;20379;-78
2023/12/14 07:50:12;;;;;;;13.75;7.78;;;6.50;90.40;;;;;;5130032;27;20035;-78
2023/12/14 07:52:38;;;;;;;11.32;7.45;;;6.50;90.40;;;;;;5107532;27;20065;-79
2023/12/14 07:55:05;;;;;;;13.05;8.18;;;6.50;90.40;;;;;;5104328;28;20043;-79
2023/12/14 07:57:31;;;;;;;18.95;8.80;;;6.50;90.50;;;;;;5124657;27;20042;-79
2023/12/14 07:59:56;;;;;;;14.60;8.82;;;6.50;90.40;;;;;;5126419;27;20039;-79
2023/12/14 08:02:22;;;;;;;14.48;8.45;;;6.50;90.40;;;;;;5123611;27;20031;-79
2023/12/14 08:04:48;;;;;;;12.18;8.45;;;6.50;90.40;;;;;;5122370;27;20061;-79
2023/12/14 08:07:14;;;;;;;14.07;8.52;;;6.50;90.40;;;;;;5126210;27;20034;-79
2023/12/14 08:09:39;;;;;;;13.18;7.80;;;6.50;90.30;;;;;;5108340;27;20035;-79
2023/12/14 08:12:05;;;;;;;14.48;8.60;;;6.50;90.30;;;;;;5094406;27;20035;-79
2023/12/14 08:14:34;;;;;;;13.25;8.82;;;6.60;90.40;;;;;;5126391;27;20035;-78
2023/12/14 08:17:01;;;;;;;13.75;8.73;;;6.60;90.40;;;;;;5108559;27;20054;-79
2023/12/14 08:19:27;;;;;;;12.35;8.35;;;6.60;90.30;;;;;;5125407;27;20046;-79
2023/12/14 08:21:53;;;;;;;11.80;8.45;;;6.60;90.30;;;;;;5104894;28;20051;-79
2023/12/14 08:24:18;;;;;;;15.07;10.20;;;6.60;90.30;;;;;;5105372;28;20519;-79
2023/12/14 08:26:44;;;;;;;15.60;9.27;;;6.60;90.30;;;;;;5105031;28;20467;-79
2023/12/14 08:29:10;;;;;;;13.40;9.05;;;6.60;90.30;;;;;;5095234;28;20045;-79
2023/12/14 08:31:35;;;;;;;13.00;9.07;;;6.60;90.30;;;;;;5106486;27;20031;-79
2023/12/14 08:34:01;;;;;;;10.63;7.85;;;6.60;90.30;;;;;;5111551;27;20084;-79
2023/12/14 08:36:26;;;;;;;13.50;8.40;;;6.60;90.30;;;;;;5108376;28;20055;-79
2023/12/14 08:38:52;;;;;;;15.40;9.20;;;6.60;90.30;;;;;;5110877;28;20050;-79
2023/12/14 08:41:18;;;;;;;13.85;9.02;;;6.60;90.20;;;;;;5111217;28;20505;-79
2023/12/14 08:43:43;;;;;;;15.95;10.35;;;6.60;90.10;;;;;;5105605;28;20031;-79
2023/12/14 08:46:09;;;;;;;15.38;8.98;;;6.60;89.90;;;;;;5090631;28;20047;-79
2023/12/14 08:48:35;;;;;;;14.15;9.20;;;6.50;89.60;;;;;;5110267;28;20055;-80
2023/12/14 08:51:01;;;;;;;14.00;8.95;;;6.50;89.50;;;;;;5110871;28;20117;-79
2023/12/14 08:53:27;;;;;;;12.60;8.50;;;6.50;89.70;;;;;;5109996;28;20039;-79
2023/12/14 08:55:53;;;;;;;13.70;8.85;;;6.50;89.80;;;;;;5106986;28;20044;-79
2023/12/14 08:58:18;;;;;;;16.60;9.68;;;6.50;90.00;;;;;;5107930;28;20040;-79
2023/12/14 09:00:44;;;;;;;14.20;9.15;;;6.50;90.00;;;;;;5107094;28;20040;-80
2023/12/14 09:03:10;;;;;;;13.27;8.73;;;6.50;90.00;;;;;;5107416;28;20101;-80
2023/12/14 09:05:36;;;;;;;13.73;9.75;;;6.50;90.00;;;;;;5108698;28;20048;-79
2023/12/14 09:08:02;;;;;;;13.15;8.90;;;6.50;90.10;;;;;;5104899;28;20077;-79
2023/12/14 09:10:28;;;;;;;16.30;9.20;;;6.50;90.10;;;;;;5106924;28;20456;-79
2023/12/14 09:12:53;;;;;;;13.43;9.15;;;6.50;90.10;;;;;;5105756;28;20054;-80
2023/12/14 09:15:19;;;;;;;14.00;8.63;;;6.60;90.20;;;;;;5088437;28;20034;-80
2023/12/14 09:17:45;;;;;;;16.02;9.30;;;6.60;90.20;;;;;;5108723;28;20099;-80
2023/12/14 09:20:11;;;;;;;14.40;8.68;;;6.60;90.20;;;;;;5106511;28;20043;-80
2023/12/14 09:22:36;;;;;;;13.60;9.10;;;6.60;90.20;;;;;;5107750;28;20036;-80
2023/12/14 09:25:03;;;;;;;15.48;9.02;;;6.60;90.20;;;;;;5108407;28;20046;-80
2023/12/14 09:27:29;;;;;;;11.73;8.10;;;6.60;90.20;;;;;;5105764;28;20487;-80
2023/12/14 09:29:55;;;;;;;18.25;10.25;;;6.70;90.20;;;;;;5107621;28;20092;-79
2023/12/14 09:32:21;;;;;;;16.05;9.85;;;6.70;90.20;;;;;;5109506;28;20043;-80
2023/12/14 09:34:46;;;;;;;13.63;8.80;;;6.70;90.10;;;;;;5104525;28;20048;-79
2023/12/14 09:37:14;;;;;;;12.50;8.48;;;6.70;90.00;;;;;;5088313;28;20062;-80
2023/12/14 09:39:39;;;;;;;13.07;8.65;;;6.70;90.00;;;;;;5107066;28;20051;-79
2023/12/14 09:42:07;;;;;;;13.60;9.00;;;6.70;90.00;;;;;;5107441;28;20402;-80
2023/12/14 09:44:34;;;;;;;15.55;9.85;;;6.70;90.00;;;;;;5111514;28;20091;-80
2023/12/14 09:47:02;;;;;;;12.90;9.35;;;6.70;90.00;;;;;;5109627;28;20073;-79
2023/12/14 09:49:30;;;;;;;11.90;8.27;;;6.70;89.80;;;;;;5109372;28;20115;-80
2023/12/14 09:51:56;;;;;;;15.60;9.35;;;6.70;90.00;;;;;;5113018;28;20495;-80
2023/12/14 09:54:22;;;;;;;12.95;8.70;;;6.70;89.70;;;;;;5106611;28;20039;-79
2023/12/14 09:56:49;;;;;;;15.82;9.40;;;6.70;89.80;;;;;;5110031;28;20165;-80
2023/12/14 09:59:15;;;;;;;14.43;10.25;;;6.70;89.90;;;;;;5109648;28;20044;-81
2023/12/14 10:01:41;;;;;;;14.98;9.13;;;6.80;90.00;;;;;;5107381;28;20046;-81
2023/12/14 10:04:15;;;;;;;16.67;9.20;;;7.00;90.10;;;;;;5113471;28;20470;-81
2023/12/14 10:06:42;;;;;;;12.88;8.52;;;6.80;90.10;;;;;;5107653;28;20028;-81
2023/12/14 10:09:14;;;;;;;15.07;9.30;;;6.80;90.10;;;;;;5109617;28;20127;-80
2023/12/14 10:11:41;;;;;;;16.77;10.25;;;6.90;90.10;;;;;;5108207;28;20036;-81
2023/12/14 10:14:26;;;;;;;16.40;9.10;;;6.90;90.10;;;;;;5108701;28;20044;-80
2023/12/14 10:16:52;;;;;;;15.77;9.75;;;6.90;90.00;;;;;;5107034;28;20078;-81
2023/12/14 10:19:19;;;;;;;11.63;8.60;;;6.90;89.70;;;;;;5109888;28;20028;-81
2023/12/14 10:21:46;;;;;;;13.18;8.85;;;6.90;89.50;;;;;;5111420;28;20044;-81
2023/12/14 10:24:13;;;;;;;13.93;8.90;;;6.90;89.40;;;;;;5109576;28;20038;-81
2023/12/14 10:26:44;;;;;;;13.40;8.93;;;6.90;89.80;;;;;;5106502;28;20036;-80
2023/12/14 10:29:09;;;;;;;12.55;8.73;;;7.00;89.60;;;;;;5103960;28;20049;-80
2023/12/14 10:31:39;;;;;;;16.02;9.90;;;7.00;89.60;;;;;;5104553;28;20036;-80
2023/12/14 10:34:05;;;;;;;14.13;8.80;;;7.00;89.70;;;;;;5107721;28;20066;-80
2023/12/14 10:36:31;;;;;;;12.15;8.60;;;7.10;89.70;;;;;;5105570;28;20051;-80
2023/12/14 10:38:58;;;;;;;15.38;8.82;;;7.10;89.70;;;;;;5109106;28;20040;-80
2023/12/14 10:41:29;;;;;;;15.57;9.43;;;7.20;89.80;;;;;;5091912;28;20379;-80
2023/12/14 10:43:56;;;;;;;16.17;10.02;;;7.60;90.00;;;;;;5111800;28;20522;-80
2023/12/14 10:46:23;;;;;;;13.95;9.10;;;7.20;89.70;;;;;;5105434;28;20138;-80
2023/12/14 10:48:50;;;;;;;14.25;9.50;;;7.30;89.70;;;;;;5088718;28;20051;-80
2023/12/14 10:51:20;;;;;;;15.60;9.95;;;7.30;89.60;;;;;;5104820;28;20347;-80
2023/12/14 10:53:48;;;;;;;13.65;9.18;;;7.40;89.50;;;;;;5104658;28;20050;-80
2023/12/14 10:56:14;;;;;;;14.80;9.10;;;7.40;89.30;;;;;;5103428;28;20040;-81
2023/12/14 10:58:57;;;;;;;12.48;8.25;;;7.40;89.00;;;;;;5106336;28;20483;-81
2023/12/14 11:01:24;;;;;;;12.30;9.05;;;7.50;88.60;;;;;;5089853;28;20050;-81
2023/12/14 11:03:55;;;;;;;10.45;8.00;;;7.50;88.10;;;;;;5102272;28;20340;-81
2023/12/14 11:06:30;;;;;;;12.32;7.63;;;7.50;87.60;;;;;;5101872;28;20054;-81
2023/12/14 11:09:05;;;;;;;13.60;8.52;;;7.50;87.30;;;;;;5115944;28;20054;-81
2023/12/14 11:11:43;;;;;;;12.15;8.25;;;7.50;87.40;;;;;;5088138;28;20036;-80
2023/12/14 11:14:12;;;;;;;12.98;8.43;;;7.60;87.40;;;;;;5102489;28;20384;-81
2023/12/14 11:16:44;;;;;;;13.65;8.88;;;7.60;87.40;;;;;;5105596;28;20066;-81
2023/12/14 11:19:22;;;;;;;13.30;8.52;;;7.60;87.10;;;;;;5102032;28;20047;-81
2023/12/14 11:21:56;;;;;;;12.80;8.38;;;7.70;86.80;;;;;;5108631;28;20044;-81
2023/12/14 11:24:22;;;;;;;12.23;9.05;;;7.70;86.80;;;;;;5101238;28;20733;-80
2023/12/14 11:26:51;;;;;;;12.27;8.57;;;7.70;86.50;;;;;;5103497;28;20486;-80
2023/12/14 11:29:21;;;;;;;14.68;8.80;;;7.70;86.20;;;;;;5103903;28;20084;-80
2023/12/14 11:31:47;;;;;;;10.57;7.20;;;7.70;86.10;;;;;;5104069;28;20044;-80
2023/12/14 11:34:15;;;;;;;11.52;7.95;;;7.80;86.10;;;;;;5103195;28;20059;-80
2023/12/14 11:36:41;;;;;;;12.02;8.18;;;7.80;86.00;;;;;;5101766;28;20080;-80
2023/12/14 11:39:11;;;;;;;12.05;7.78;;;7.90;86.00;;;;;;5100514;28;20409;-79
2023/12/14 11:41:38;;;;;;;10.10;6.95;;;7.90;85.60;;;;;;5099643;28;20047;-80
2023/12/14 11:44:05;;;;;;;12.13;7.75;;;7.90;85.50;;;;;;5095671;28;20234;-80
2023/12/14 11:46:31;;;;;;;13.57;7.97;;;7.90;85.70;;;;;;5102923;28;20066;-80
2023/12/14 11:48:58;;;;;;;10.98;8.18;;;8.00;85.40;;;;;;5101633;28;20082;-80
2023/12/14 11:51:25;;;;;;;14.02;8.98;;;8.00;85.40;;;;;;5101249;28;20042;-80
2023/12/14 11:53:51;;;;;;;12.00;7.55;;;8.00;85.40;;;;;;5098088;28;20050;-80
2023/12/14 11:56:18;;;;;;;10.73;7.63;;;8.00;85.40;;;;;;5104534;28;20036;-80
2023/12/14 11:58:47;;;;;;;11.27;7.40;;;8.10;85.40;;;;;;5106328;28;20088;-80
2023/12/14 12:01:18;;;;;;;12.18;8.32;;;8.10;85.40;;;;;;5103381;28;20490;-80
2023/12/14 12:03:46;;;;;;;12.32;7.35;;;8.10;85.20;;;;;;5110028;28;20084;-80
2023/12/14 12:06:21;;;;;;;9.32;7.50;;;8.10;85.10;;;;;;5088093;28;20036;-80
2023/12/14 12:08:47;;;;;;;10.35;7.72;;;8.10;84.70;;;;;;5105675;28;20032;-80
2023/12/14 12:11:20;;;;;;;9.93;7.43;;;8.10;84.70;;;;;;5102819;28;20047;-80
2023/12/14 12:13:54;;;;;;;10.20;8.00;;;8.10;84.50;;;;;;5107606;28;20051;-80
2023/12/14 12:16:19;;;;;;;10.50;7.60;;;8.20;84.50;;;;;;5104499;28;20126;-80
2023/12/14 12:18:45;;;;;;;10.95;7.85;;;8.20;84.60;;;;;;5111363;28;20079;-80
2023/12/14 12:21:11;;;;;;;10.82;8.27;;;8.20;84.60;;;;;;5100785;28;20043;-80
2023/12/14 12:23:37;;;;;;;12.70;9.30;;;8.20;84.40;;;;;;5100620;28;20032;-81
2023/12/14 12:26:03;;;;;;;12.65;8.15;;;8.20;84.40;;;;;;5101618;28;20055;-80
2023/12/14 12:28:30;;;;;;;11.48;7.93;;;8.20;84.30;;;;;;5106965;28;20035;-79
2023/12/14 12:30:56;;;;;;;12.60;8.57;;;8.20;84.10;;;;;;5105524;28;20067;-80
2023/12/14 12:33:21;;;;;;;12.77;8.40;;;8.20;84.10;;;;;;5105130;28;20036;-80
2023/12/14 12:35:47;;;;;;;10.63;8.10;;;8.20;84.10;;;;;;5104897;28;20075;-81
2023/12/14 12:38:14;;;;;;;12.43;8.88;;;8.20;84.10;;;;;;5104796;28;20098;-79
2023/12/14 12:40:39;;;;;;;14.55;8.57;;;8.20;84.10;;;;;;5109176;28;20046;-80
2023/12/14 12:43:05;;;;;;;10.77;8.07;;;8.20;84.10;;;;;;5124517;28;20027;-80